Time;durP1;ratioP1;P1;durP2;ratioP2;P2;SDS_P1;SDS_P2;PMS_P1;PMS_P2;Temp;Humidity;BMP_temperature;BMP_pressure;BME280_temperature;BME280_humidity;BME280_pressure;Samples;Min_cycle;Max_cycle;Signal;HPM_P1;HPM_P2
2024/01/20 00:00:47;;;;;;;2.93;1.80;;;;;;;;;;5070022;28;20198;-80
2024/01/20 00:03:17;;;;;;;10.00;2.93;;;;;;;;;;5070761;28;20206;-80
2024/01/20 00:05:45;;;;;;;5.50;3.53;;;;;;;;;;5070432;28;20202;-80
2024/01/20 00:08:15;;;;;;;8.63;3.40;;;;;;;;;;5070063;28;20233;-80
2024/01/20 00:10:44;;;;;;;5.67;2.47;;;;;;;;;;5069743;28;20205;-80
2024/01/20 00:13:12;;;;;;;8.63;3.43;;;;;;;;;;5071718;28;20227;-80
2024/01/20 00:15:42;;;;;;;3.37;3.07;;;;;;;;;;5070582;28;20198;-80
2024/01/20 00:18:11;;;;;;;5.50;3.73;;;;;;;;;;5071533;28;20190;-80
2024/01/20 00:20:40;;;;;;;9.67;3.03;;;;;;;;;;5071143;28;20205;-80
2024/01/20 00:23:09;;;;;;;4.83;3.50;;;;;;;;;;5070168;28;20194;-80
2024/01/20 00:25:43;;;;;;;4.37;3.23;;;;;;;;;;5070435;28;20328;-80
2024/01/20 00:28:11;;;;;;;4.57;3.60;;;;;;;;;;5069970;28;20246;-80
2024/01/20 00:30:40;;;;;;;3.43;3.13;;;;;;;;;;5069728;28;20194;-80
2024/01/20 00:33:09;;;;;;;6.30;3.77;;;;;;;;;;5071079;28;20216;-80
2024/01/20 00:35:42;;;;;;;4.40;2.87;;;;;;;;;;5070111;28;20232;-80
2024/01/20 00:38:11;;;;;;;3.93;2.20;;;;;;;;;;5070281;28;20202;-80
2024/01/20 00:40:41;;;;;;;5.80;3.07;;;;;;;;;;5069675;28;20194;-80
2024/01/20 00:43:10;;;;;;;4.70;2.70;;;;;;;;;;5070926;28;20198;-80
2024/01/20 00:45:38;;;;;;;6.27;2.50;;;;;;;;;;5071192;28;20193;-80
2024/01/20 00:48:07;;;;;;;3.30;2.17;;;;;;;;;;5070916;28;20217;-80
2024/01/20 00:50:35;;;;;;;3.83;2.80;;;;;;;;;;5069537;28;20217;-80
2024/01/20 00:53:04;;;;;;;7.93;3.10;;;;;;;;;;5071063;28;20280;-80
2024/01/20 00:55:32;;;;;;;3.50;2.00;;;;;;;;;;5069915;28;20243;-80
2024/01/20 00:58:01;;;;;;;3.67;2.90;;;;;;;;;;5069680;28;20190;-80
2024/01/20 01:00:30;;;;;;;2.40;2.20;;;;;;;;;;5070196;28;20185;-80
2024/01/20 01:02:58;;;;;;;2.27;2.13;;;;;;;;;;5070577;28;20224;-80
2024/01/20 01:05:27;;;;;;;2.83;2.17;;;;;;;;;;5069870;28;20281;-80
2024/01/20 01:07:56;;;;;;;3.33;2.47;;;;;;;;;;5070770;28;20300;-80
2024/01/20 01:10:24;;;;;;;3.80;2.50;;;;;;;;;;5069751;28;20251;-80
2024/01/20 01:12:53;;;;;;;6.23;2.60;;;;;;;;;;5072568;28;20197;-80
2024/01/20 01:15:23;;;;;;;3.47;3.17;;;;;;;;;;5073577;28;20205;-80
2024/01/20 01:17:51;;;;;;;8.87;2.93;;;;;;;;;;5075294;28;20221;-80
2024/01/20 01:20:20;;;;;;;5.93;2.77;;;;;;;;;;5074487;28;20201;-80
2024/01/20 01:22:51;;;;;;;5.67;2.97;;;;;;;;;;5073352;28;20301;-80
2024/01/20 01:25:22;;;;;;;5.87;2.87;;;;;;;;;;5072628;28;20248;-80
2024/01/20 01:27:51;;;;;;;6.30;2.57;;;;;;;;;;5073184;28;20271;-80
2024/01/20 01:30:19;;;;;;;4.37;2.37;;;;;;;;;;5073252;28;20236;-80
2024/01/20 01:32:49;;;;;;;2.30;1.83;;;;;;;;;;5072915;28;20210;-80
2024/01/20 01:35:18;;;;;;;6.63;4.43;;;;;;;;;;5074341;28;20197;-80
2024/01/20 01:37:46;;;;;;;8.20;2.80;;;;;;;;;;5073055;28;20198;-80
2024/01/20 01:40:15;;;;;;;4.07;1.70;;;;;;;;;;5074447;28;20206;-80
2024/01/20 01:42:43;;;;;;;3.83;2.20;;;;;;;;;;5073195;28;20288;-80
2024/01/20 01:45:12;;;;;;;2.00;1.90;;;;;;;;;;5072393;28;20288;-80
2024/01/20 01:47:40;;;;;;;3.77;2.30;;;;;;;;;;5073825;28;20300;-80
2024/01/20 01:50:10;;;;;;;5.17;2.90;;;;;;;;;;5074036;28;20274;-80
2024/01/20 01:52:40;;;;;;;4.50;3.00;;;;;;;;;;5072998;28;20205;-80
2024/01/20 01:55:09;;;;;;;6.07;2.80;;;;;;;;;;5072296;28;20215;-80
2024/01/20 01:57:39;;;;;;;4.63;2.57;;;;;;;;;;5072464;28;20202;-80
2024/01/20 02:00:08;;;;;;;5.33;2.70;;;;;;;;;;5073177;28;20198;-80
2024/01/20 02:02:37;;;;;;;3.30;2.20;;;;;;;;;;5073851;28;20288;-80
2024/01/20 02:05:06;;;;;;;5.33;2.80;;;;;;;;;;5072513;28;20198;-80
2024/01/20 02:07:36;;;;;;;8.90;3.17;;;;;;;;;;5073545;28;20218;-80
2024/01/20 02:10:06;;;;;;;6.57;2.77;;;;;;;;;;5072291;28;20201;-80
2024/01/20 02:12:35;;;;;;;9.23;3.10;;;;;;;;;;5072697;28;20189;-80
2024/01/20 02:15:04;;;;;;;7.97;4.03;;;;;;;;;;5073008;28;20197;-80
2024/01/20 02:17:32;;;;;;;4.87;2.07;;;;;;;;;;5072141;28;20197;-80
2024/01/20 02:20:01;;;;;;;1.90;1.80;;;;;;;;;;5073620;28;20205;-80
2024/01/20 02:22:31;;;;;;;4.07;2.87;;;;;;;;;;5072487;28;20202;-80
2024/01/20 02:24:59;;;;;;;6.37;2.63;;;;;;;;;;5071880;28;20282;-80
2024/01/20 02:27:28;;;;;;;6.47;2.80;;;;;;;;;;5071389;28;20205;-80
2024/01/20 02:29:56;;;;;;;4.03;2.20;;;;;;;;;;5073723;28;20289;-80
2024/01/20 02:32:25;;;;;;;4.87;2.63;;;;;;;;;;5072467;28;20193;-80
2024/01/20 02:34:53;;;;;;;7.47;2.23;;;;;;;;;;5073148;28;20444;-80
2024/01/20 02:37:22;;;;;;;7.33;2.10;;;;;;;;;;5070928;28;20231;-80
2024/01/20 02:39:52;;;;;;;4.37;2.10;;;;;;;;;;5071966;28;20206;-80
2024/01/20 02:42:20;;;;;;;8.70;2.90;;;;;;;;;;5071912;28;20241;-80
2024/01/20 02:44:50;;;;;;;6.67;2.30;;;;;;;;;;5071902;28;20338;-80
2024/01/20 02:47:18;;;;;;;7.20;2.73;;;;;;;;;;5071270;28;20243;-80
2024/01/20 02:49:48;;;;;;;3.37;1.53;;;;;;;;;;5072936;28;20221;-80
2024/01/20 02:52:17;;;;;;;6.47;2.37;;;;;;;;;;5071801;28;20194;-80
2024/01/20 02:54:45;;;;;;;3.27;2.07;;;;;;;;;;5073233;28;20205;-80
2024/01/20 02:57:19;;;;;;;5.23;1.43;;;;;;;;;;5071232;28;20271;-80
2024/01/20 02:59:48;;;;;;;7.47;2.63;;;;;;;;;;5071250;28;20193;-80
2024/01/20 03:02:16;;;;;;;7.07;2.10;;;;;;;;;;5071646;28;20281;-80
2024/01/20 03:04:45;;;;;;;3.10;2.33;;;;;;;;;;5071487;28;20197;-80
2024/01/20 03:07:14;;;;;;;6.03;2.13;;;;;;;;;;5071201;28;20193;-80
2024/01/20 03:09:43;;;;;;;4.13;2.10;;;;;;;;;;5070813;28;20308;-80
2024/01/20 03:12:11;;;;;;;4.97;2.40;;;;;;;;;;5071623;28;20202;-80
2024/01/20 03:14:41;;;;;;;4.47;2.20;;;;;;;;;;5072382;28;20194;-80
2024/01/20 03:17:10;;;;;;;5.97;2.37;;;;;;;;;;5070872;28;20206;-80
2024/01/20 03:19:38;;;;;;;2.43;1.90;;;;;;;;;;5071866;28;20281;-80
2024/01/20 03:22:07;;;;;;;2.70;1.60;;;;;;;;;;5071006;28;20276;-80
2024/01/20 03:24:35;;;;;;;2.70;2.37;;;;;;;;;;5072550;28;20288;-80
2024/01/20 03:27:04;;;;;;;6.07;2.67;;;;;;;;;;5070895;28;20300;-80
2024/01/20 03:29:33;;;;;;;8.97;3.67;;;;;;;;;;5070246;28;20213;-80
2024/01/20 03:32:02;;;;;;;7.20;3.20;;;;;;;;;;5071193;28;20208;-80
2024/01/20 03:34:31;;;;;;;9.63;3.10;;;;;;;;;;5070407;28;20241;-80
2024/01/20 03:37:00;;;;;;;3.47;2.30;;;;;;;;;;5070749;28;20193;-80
2024/01/20 03:39:28;;;;;;;8.37;3.17;;;;;;;;;;5053695;28;20198;-80
2024/01/20 03:41:57;;;;;;;7.03;2.40;;;;;;;;;;5071639;28;20252;-80
2024/01/20 03:44:25;;;;;;;9.87;2.50;;;;;;;;;;5070845;28;20217;-80
2024/01/20 03:46:54;;;;;;;2.57;1.87;;;;;;;;;;5070682;28;20263;-80
2024/01/20 03:49:24;;;;;;;4.20;3.07;;;;;;;;;;5070119;28;20222;-80
2024/01/20 03:51:52;;;;;;;3.93;2.43;;;;;;;;;;5070343;28;20202;-80
2024/01/20 03:54:20;;;;;;;6.00;2.10;;;;;;;;;;5072079;28;20289;-80
2024/01/20 03:56:48;;;;;;;9.87;3.20;;;;;;;;;;5071110;28;20194;-80
2024/01/20 03:59:17;;;;;;;3.77;2.47;;;;;;;;;;5069891;28;20210;-80
2024/01/20 04:01:45;;;;;;;3.07;2.33;;;;;;;;;;5070157;28;20193;-80
2024/01/20 04:04:14;;;;;;;6.77;2.87;;;;;;;;;;5070283;28;20196;-80
2024/01/20 04:06:44;;;;;;;7.03;2.93;;;;;;;;;;5070983;28;20201;-80
2024/01/20 04:09:12;;;;;;;4.40;2.73;;;;;;;;;;5069887;28;20221;-80
2024/01/20 04:11:41;;;;;;;17.40;4.37;;;;;;;;;;5069707;28;20305;-80
2024/01/20 04:14:09;;;;;;;3.67;1.70;;;;;;;;;;5071798;28;20201;-80
2024/01/20 04:16:38;;;;;;;3.27;2.30;;;;;;;;;;5071248;28;20284;-80
2024/01/20 04:19:06;;;;;;;1.50;1.40;;;;;;;;;;5070306;28;20198;-80
2024/01/20 04:21:35;;;;;;;9.57;4.03;;;;;;;;;;5071148;28;20216;-80
2024/01/20 04:24:05;;;;;;;5.73;2.43;;;;;;;;;;5071789;28;20193;-80
2024/01/20 04:26:34;;;;;;;3.83;1.93;;;;;;;;;;5030308;28;20199;-80
2024/01/20 04:29:02;;;;;;;6.63;2.83;;;;;;;;;;5031739;28;20245;-80
2024/01/20 04:31:31;;;;;;;1.37;1.27;;;;;;;;;;5030771;28;20295;-80
2024/01/20 04:33:59;;;;;;;6.73;2.60;;;;;;;;;;5046229;28;20199;-80
2024/01/20 04:36:28;;;;;;;5.07;2.60;;;;;;;;;;5030465;28;20201;-80
2024/01/20 04:38:57;;;;;;;7.83;1.90;;;;;;;;;;5031228;28;20203;-80
2024/01/20 04:41:26;;;;;;;3.60;1.50;;;;;;;;;;5029811;28;20225;-80
2024/01/20 04:43:55;;;;;;;3.90;1.40;;;;;;;;;;5029813;28;20253;-80
2024/01/20 04:46:23;;;;;;;5.93;2.30;;;;;;;;;;5030992;28;20198;-80
2024/01/20 04:48:52;;;;;;;1.40;1.30;;;;;;;;;;5050239;28;20227;-80
2024/01/20 04:51:20;;;;;;;1.00;1.00;;;;;;;;;;5035319;28;20386;-80
2024/01/20 04:53:52;;;;;;;5.50;1.30;;;;;;;;;;5034003;28;20256;-80
2024/01/20 04:56:22;;;;;;;4.40;1.77;;;;;;;;;;5035425;28;20195;-80
2024/01/20 04:58:53;;;;;;;4.00;1.77;;;;;;;;;;5034099;28;20195;-80
2024/01/20 05:01:22;;;;;;;5.30;2.73;;;;;;;;;;5034745;28;20282;-80
2024/01/20 05:03:50;;;;;;;3.07;2.37;;;;;;;;;;5033947;28;20234;-80
2024/01/20 05:06:19;;;;;;;6.13;2.43;;;;;;;;;;5033663;28;20195;-80
2024/01/20 05:08:48;;;;;;;1.87;1.20;;;;;;;;;;5033785;28;20299;-80
2024/01/20 05:11:17;;;;;;;5.83;2.57;;;;;;;;;;5033679;28;20231;-80
2024/01/20 05:13:48;;;;;;;5.93;2.50;;;;;;;;;;5033437;28;20210;-80
2024/01/20 05:16:18;;;;;;;3.93;1.73;;;;;;;;;;5033632;28;20203;-80
2024/01/20 05:18:48;;;;;;;4.30;1.53;;;;;;;;;;5033707;28;20206;-80
2024/01/20 05:21:19;;;;;;;1.60;1.20;;;;;;;;;;5017284;28;20290;-80
2024/01/20 05:23:48;;;;;;;3.30;1.60;;;;;;;;;;5049831;28;20203;-80
2024/01/20 05:26:19;;;;;;;6.13;1.90;;;;;;;;;;5072447;28;20234;-80
2024/01/20 05:28:47;;;;;;;3.57;2.67;;;;;;;;;;5073374;28;20262;-80
2024/01/20 05:31:20;;;;;;;5.30;2.07;;;;;;;;;;5074526;28;20290;-80
2024/01/20 05:33:48;;;;;;;4.83;1.80;;;;;;;;;;5074080;28;20206;-80
2024/01/20 05:36:17;;;;;;;2.43;1.63;;;;;;;;;;5072943;28;20288;-80
2024/01/20 05:38:46;;;;;;;3.47;1.60;;;;;;;;;;5074300;28;20195;-80
2024/01/20 05:41:16;;;;;;;9.83;7.07;;;;;;;;;;5074690;28;20201;-80
2024/01/20 05:43:45;;;;;;;13.17;8.30;;;;;;;;;;5073899;28;20220;-80
2024/01/20 05:46:13;;;;;;;19.07;12.60;;;;;;;;;;5072362;28;20245;-80
2024/01/20 05:48:43;;;;;;;17.07;11.10;;;;;;;;;;5074366;28;20308;-80
2024/01/20 05:51:13;;;;;;;17.03;9.00;;;;;;;;;;5072481;28;20217;-80
2024/01/20 05:53:41;;;;;;;28.67;18.90;;;;;;;;;;5072657;28;20221;-80
2024/01/20 05:56:09;;;;;;;10.77;8.37;;;;;;;;;;5072583;28;20213;-80
2024/01/20 05:58:38;;;;;;;39.67;32.20;;;;;;;;;;5071866;28;20197;-80
2024/01/20 06:01:06;;;;;;;23.90;21.33;;;;;;;;;;5072378;28;20198;-80
2024/01/20 06:03:36;;;;;;;19.87;15.17;;;;;;;;;;5072784;28;20205;-80
2024/01/20 06:06:07;;;;;;;21.33;13.00;;;;;;;;;;5072054;28;20269;-80
2024/01/20 06:08:37;;;;;;;25.23;15.77;;;;;;;;;;5071894;28;20192;-80
2024/01/20 06:11:06;;;;;;;17.20;14.20;;;;;;;;;;5072819;28;20209;-80
2024/01/20 06:13:36;;;;;;;28.20;19.10;;;;;;;;;;5072702;28;20204;-80
2024/01/20 06:16:05;;;;;;;40.93;32.07;;;;;;;;;;5072231;28;20197;-80
2024/01/20 06:18:33;;;;;;;37.63;31.03;;;;;;;;;;5072203;28;20217;-80
2024/01/20 06:21:02;;;;;;;46.20;38.00;;;;;;;;;;5073556;28;20295;-80
2024/01/20 06:23:32;;;;;;;37.33;29.90;;;;;;;;;;5072532;28;20205;-80
2024/01/20 06:26:00;;;;;;;42.33;30.53;;;;;;;;;;5071889;28;20236;-80
2024/01/20 06:28:29;;;;;;;31.50;20.10;;;;;;;;;;5071729;28;20211;-80
2024/01/20 06:30:57;;;;;;;38.07;30.53;;;;;;;;;;5072057;28;20225;-80
2024/01/20 06:33:26;;;;;;;25.77;17.27;;;;;;;;;;5073258;28;20227;-80
2024/01/20 06:35:54;;;;;;;32.80;25.63;;;;;;;;;;5071922;28;20246;-80
2024/01/20 06:38:23;;;;;;;31.63;26.13;;;;;;;;;;5071378;28;20202;-80
2024/01/20 06:40:53;;;;;;;39.93;26.70;;;;;;;;;;5073116;28;20194;-80
2024/01/20 06:43:21;;;;;;;31.80;27.20;;;;;;;;;;5073230;28;20229;-80
2024/01/20 06:45:50;;;;;;;32.93;20.67;;;;;;;;;;5071467;28;20217;-80
2024/01/20 06:48:18;;;;;;;30.87;26.33;;;;;;;;;;5070884;28;20197;-80
2024/01/20 06:50:47;;;;;;;39.50;31.33;;;;;;;;;;5071621;28;20220;-80
2024/01/20 06:53:16;;;;;;;26.13;16.97;;;;;;;;;;5073336;28;20205;-80
2024/01/20 06:55:44;;;;;;;36.20;26.00;;;;;;;;;;5071974;28;20220;-80
2024/01/20 06:58:14;;;;;;;33.93;28.63;;;;;;;;;;5071102;28;20315;-80
2024/01/20 07:00:43;;;;;;;39.43;31.13;;;;;;;;;;5071550;28;20250;-80
2024/01/20 07:03:12;;;;;;;31.07;22.20;;;;;;;;;;5072526;28;20207;-80
2024/01/20 07:05:40;;;;;;;27.20;17.07;;;;;;;;;;5071551;28;20203;-80
2024/01/20 07:08:10;;;;;;;42.13;33.70;;;;;;;;;;5070990;28;20212;-80
2024/01/20 07:10:38;;;;;;;38.50;33.37;;;;;;;;;;5070002;28;20228;-80
2024/01/20 07:13:07;;;;;;;33.07;27.07;;;;;;;;;;5072413;28;20203;-80
2024/01/20 07:15:37;;;;;;;32.93;23.13;;;;;;;;;;5072726;28;20204;-80
2024/01/20 07:18:06;;;;;;;35.43;31.53;;;;;;;;;;5070936;28;20194;-80
2024/01/20 07:20:34;;;;;;;34.07;22.73;;;;;;;;;;5072272;28;20188;-80
2024/01/20 07:23:03;;;;;;;34.60;22.87;;;;;;;;;;5072479;28;20266;-80
2024/01/20 07:25:36;;;;;;;37.00;30.53;;;;;;;;;;5071188;28;20235;-80
2024/01/20 07:28:05;;;;;;;39.67;30.07;;;;;;;;;;5071796;28;20220;-80
2024/01/20 07:30:33;;;;;;;40.03;34.70;;;;;;;;;;5070557;28;20234;-80
2024/01/20 07:33:03;;;;;;;23.13;14.07;;;;;;;;;;5071969;28;20210;-80
2024/01/20 07:35:32;;;;;;;36.27;22.67;;;;;;;;;;5072282;28;20196;-80
2024/01/20 07:38:00;;;;;;;18.63;13.40;;;;;;;;;;5070571;28;20200;-80
2024/01/20 07:40:29;;;;;;;34.07;26.10;;;;;;;;;;5071473;28;20207;-80
2024/01/20 07:42:57;;;;;;;25.37;21.37;;;;;;;;;;5072003;28;20206;-80
2024/01/20 07:45:26;;;;;;;36.60;21.80;;;;;;;;;;5072024;28;20200;-80
2024/01/20 07:47:55;;;;;;;34.07;28.17;;;;;;;;;;5070331;28;20197;-80
2024/01/20 07:50:25;;;;;;;42.10;26.60;;;;;;;;;;5071374;28;20221;-80
2024/01/20 07:52:54;;;;;;;19.33;11.50;;;;;;;;;;5070583;28;20345;-80
2024/01/20 07:55:22;;;;;;;26.40;17.70;;;;;;;;;;5072276;28;20208;-80
2024/01/20 07:57:50;;;;;;;31.43;21.10;;;;;;;;;;5071733;28;20196;-80
2024/01/20 08:00:20;;;;;;;23.77;10.57;;;;;;;;;;5069978;28;20197;-80
2024/01/20 08:02:49;;;;;;;19.60;14.10;;;;;;;;;;5070147;28;20211;-80
2024/01/20 08:05:17;;;;;;;26.33;19.00;;;;;;;;;;5070619;28;20296;-80
2024/01/20 08:07:47;;;;;;;22.30;16.40;;;;;;;;;;5070880;28;20206;-80
2024/01/20 08:10:16;;;;;;;38.60;26.67;;;;;;;;;;5071606;28;20194;-80
2024/01/20 08:12:44;;;;;;;37.53;28.90;;;;;;;;;;5070936;28;20224;-80
2024/01/20 08:15:13;;;;;;;37.23;29.97;;;;;;;;;;5070747;28;20239;-80
2024/01/20 08:17:41;;;;;;;36.67;24.67;;;;;;;;;;5070748;28;20197;-80
2024/01/20 08:20:12;;;;;;;24.10;15.13;;;;;;;;;;5071236;28;20196;-80
2024/01/20 08:22:40;;;;;;;33.03;21.57;;;;;;;;;;5070248;28;20190;-80
2024/01/20 08:25:10;;;;;;;18.30;12.27;;;;;;;;;;5070868;28;20200;-80
2024/01/20 08:27:39;;;;;;;16.70;9.43;;;;;;;;;;5070329;28;20208;-80
2024/01/20 08:30:08;;;;;;;23.73;17.93;;;;;;;;;;5070265;28;20199;-80
2024/01/20 08:32:39;;;;;;;28.23;18.47;;;;;;;;;;5070687;28;20303;-80
2024/01/20 08:35:08;;;;;;;20.67;13.03;;;;;;;;;;5071185;28;20203;-80
2024/01/20 08:37:37;;;;;;;21.83;14.17;;;;;;;;;;5070313;28;20331;-80
2024/01/20 08:40:06;;;;;;;40.73;26.60;;;;;;;;;;5071201;28;20293;-80
2024/01/20 08:42:36;;;;;;;29.77;22.03;;;;;;;;;;5071036;28;20224;-80
2024/01/20 08:45:05;;;;;;;24.83;16.67;;;;;;;;;;5069788;28;20201;-80
2024/01/20 08:47:34;;;;;;;30.03;18.17;;;;;;;;;;5071501;28;20194;-80
2024/01/20 08:50:02;;;;;;;43.47;23.40;;;;;;;;;;5069685;28;20228;-80
2024/01/20 08:52:31;;;;;;;34.40;25.57;;;;;;;;;;5071351;28;20480;-80
2024/01/20 08:55:00;;;;;;;25.37;18.07;;;;;;;;;;5070979;28;20197;-80
2024/01/20 08:57:29;;;;;;;28.93;18.53;;;;;;;;;;5071164;28;20205;-80
2024/01/20 09:00:00;;;;;;;41.30;29.23;;;;;;;;;;5069975;28;20290;-80
2024/01/20 09:02:29;;;;;;;38.40;30.83;;;;;;;;;;5069810;28;20230;-80
2024/01/20 09:04:58;;;;;;;25.50;16.27;;;;;;;;;;5070562;28;20196;-80
2024/01/20 09:07:27;;;;;;;30.90;20.40;;;;;;;;;;5071167;28;20272;-80
2024/01/20 09:09:56;;;;;;;29.20;22.73;;;;;;;;;;5069540;28;20303;-80
2024/01/20 09:12:27;;;;;;;27.23;20.20;;;;;;;;;;5070005;28;20219;-80
2024/01/20 09:14:55;;;;;;;21.70;14.50;;;;;;;;;;5069413;28;20507;-80
2024/01/20 09:17:25;;;;;;;30.03;23.57;;;;;;;;;;5069570;28;20234;-80
2024/01/20 09:19:54;;;;;;;36.77;27.87;;;;;;;;;;5069823;28;20213;-80
2024/01/20 09:22:22;;;;;;;27.70;21.27;;;;;;;;;;5070171;28;20197;-80
2024/01/20 09:24:52;;;;;;;38.57;25.93;;;;;;;;;;5070400;28;20196;-80
2024/01/20 09:27:23;;;;;;;38.57;29.63;;;;;;;;;;5087839;28;20244;-80
2024/01/20 09:29:51;;;;;;;28.50;20.07;;;;;;;;;;5074140;28;20199;-80
2024/01/20 09:32:20;;;;;;;42.20;34.77;;;;;;;;;;5071438;28;20222;-80
2024/01/20 09:34:50;;;;;;;37.20;24.80;;;;;;;;;;5072859;28;20318;-80
2024/01/20 09:37:19;;;;;;;15.70;11.33;;;;;;;;;;5074259;28;20238;-80
2024/01/20 09:39:47;;;;;;;24.60;16.63;;;;;;;;;;5072955;28;20205;-80
2024/01/20 09:42:16;;;;;;;29.30;21.07;;;;;;;;;;5072902;28;20198;-80
2024/01/20 09:44:44;;;;;;;30.60;17.43;;;;;;;;;;5072964;28;20255;-80
2024/01/20 09:47:13;;;;;;;27.80;16.30;;;;;;;;;;5073795;28;20222;-80
2024/01/20 09:49:41;;;;;;;21.20;17.07;;;;;;;;;;5072712;28;20309;-80
2024/01/20 09:52:17;;;;;;;38.33;26.13;;;;;;;;;;5073198;28;20304;-80
2024/01/20 09:54:55;;;;;;;30.80;24.27;;;;;;;;;;5072505;28;20250;-80
2024/01/20 09:57:27;;;;;;;24.07;19.70;;;;;;;;;;5073487;28;20223;-80
2024/01/20 09:59:55;;;;;;;31.37;22.43;;;;;;;;;;5072803;28;20195;-80
2024/01/20 10:02:27;;;;;;;19.93;15.40;;;;;;;;;;5072993;28;20232;-80
2024/01/20 10:04:58;;;;;;;19.27;15.40;;;;;;;;;;5073637;28;20220;-80
2024/01/20 10:07:29;;;;;;;26.83;16.27;;;;;;;;;;5072214;28;20204;-80
2024/01/20 10:09:58;;;;;;;20.70;16.67;;;;;;;;;;5073545;28;20205;-80
2024/01/20 10:12:26;;;;;;;30.27;17.83;;;;;;;;;;5072703;28;20217;-80
2024/01/20 10:14:55;;;;;;;28.87;20.00;;;;;;;;;;5073797;28;20326;-80
2024/01/20 10:17:23;;;;;;;21.97;13.23;;;;;;;;;;5073088;28;20186;-80
2024/01/20 10:19:52;;;;;;;16.00;10.67;;;;;;;;;;5072450;28;20232;-80
2024/01/20 10:22:20;;;;;;;19.67;13.30;;;;;;;;;;5072551;28;20293;-81
2024/01/20 10:24:54;;;;;;;23.87;18.30;;;;;;;;;;5073756;28;20208;-81
2024/01/20 10:27:24;;;;;;;24.23;18.03;;;;;;;;;;5072757;28;20260;-80
2024/01/20 10:29:52;;;;;;;31.23;10.17;;;;;;;;;;5071820;28;20236;-81
2024/01/20 10:32:21;;;;;;;21.13;15.37;;;;;;;;;;5073380;28;20219;-81
2024/01/20 10:34:49;;;;;;;17.20;11.60;;;;;;;;;;5072099;28;20275;-81
2024/01/20 10:37:20;;;;;;;18.70;12.07;;;;;;;;;;5072765;28;20251;-80
2024/01/20 10:39:48;;;;;;;13.57;11.93;;;;;;;;;;5072815;28;20192;-80
2024/01/20 10:42:21;;;;;;;16.07;11.40;;;;;;;;;;5073352;28;20201;-80
2024/01/20 10:44:52;;;;;;;14.77;10.67;;;;;;;;;;5071903;28;20205;-80
2024/01/20 10:47:23;;;;;;;16.53;10.53;;;;;;;;;;5055336;28;20251;-81
2024/01/20 10:49:55;;;;;;;16.53;9.87;;;;;;;;;;5071471;28;20221;-81
2024/01/20 10:52:24;;;;;;;22.63;14.50;;;;;;;;;;5072735;28;20213;-80
2024/01/20 10:54:53;;;;;;;26.07;12.47;;;;;;;;;;5072020;28;20197;-80
2024/01/20 10:57:22;;;;;;;14.37;9.20;;;;;;;;;;5072350;28;20232;-80
2024/01/20 10:59:51;;;;;;;19.87;13.27;;;;;;;;;;5072498;28;20221;-81
2024/01/20 11:02:20;;;;;;;12.23;10.30;;;;;;;;;;5072713;28;20208;-81
2024/01/20 11:04:48;;;;;;;15.43;11.13;;;;;;;;;;5071695;28;20197;-80
2024/01/20 11:07:22;;;;;;;27.43;11.37;;;;;;;;;;5071997;28;20225;-81
2024/01/20 11:09:57;;;;;;;16.20;10.10;;;;;;;;;;5071317;28;20198;-81
2024/01/20 11:12:29;;;;;;;14.83;12.03;;;;;;;;;;5071525;28;20256;-81
2024/01/20 11:14:59;;;;;;;11.13;6.63;;;;;;;;;;5071587;28;20220;-80
2024/01/20 11:17:29;;;;;;;7.63;5.03;;;;;;;;;;5071357;28;20201;-81
2024/01/20 11:20:07;;;;;;;12.07;7.07;;;;;;;;;;5071528;28;20186;-80
2024/01/20 11:22:36;;;;;;;5.87;4.73;;;;;;;;;;5071159;28;20221;-81
2024/01/20 11:25:05;;;;;;;4.63;4.07;;;;;;;;;;5072830;28;20193;-80
2024/01/20 11:27:46;;;;;;;12.80;10.23;;;;;;;;;;5072168;28;20291;-81
2024/01/20 11:30:25;;;;;;;16.87;8.00;;;;;;;;;;5071606;28;20201;-81
2024/01/20 11:32:54;;;;;;;15.50;12.60;;;;;;;;;;5070546;28;20218;-81
2024/01/20 11:35:23;;;;;;;9.20;5.70;;;;;;;;;;5072366;28;20202;-80
2024/01/20 11:37:51;;;;;;;11.03;8.00;;;;;;;;;;5071318;28;20204;-80
2024/01/20 11:40:21;;;;;;;19.23;12.23;;;;;;;;;;5070590;28;20200;-80
2024/01/20 11:42:51;;;;;;;8.13;5.43;;;;;;;;;;5071606;28;20273;-80
2024/01/20 11:45:19;;;;;;;9.60;6.17;;;;;;;;;;5071934;28;20197;-81
2024/01/20 11:47:48;;;;;;;11.53;7.97;;;;;;;;;;5071073;28;20202;-81
2024/01/20 11:50:16;;;;;;;10.40;6.93;;;;;;;;;;5070131;28;20213;-81
2024/01/20 11:52:45;;;;;;;7.07;5.57;;;;;;;;;;5087136;28;20197;-81
2024/01/20 11:55:14;;;;;;;8.47;6.77;;;;;;;;;;5071519;28;20200;-81
2024/01/20 11:57:44;;;;;;;6.17;4.50;;;;;;;;;;5072084;28;20240;-80
2024/01/20 12:00:14;;;;;;;5.80;3.80;;;;;;;;;;5070909;28;20190;-80
2024/01/20 12:02:47;;;;;;;10.43;5.03;;;;;;;;;;5071498;28;20231;-80
2024/01/20 12:05:16;;;;;;;9.40;6.00;;;;;;;;;;5088810;28;20193;-81
2024/01/20 12:07:49;;;;;;;9.83;7.07;;;;;;;;;;5092536;28;20207;-81
2024/01/20 12:10:18;;;;;;;11.27;5.57;;;;;;;;;;5091936;28;20224;-81
2024/01/20 12:12:47;;;;;;;8.43;5.10;;;;;;;;;;5091564;28;20204;-81
2024/01/20 12:15:19;;;;;;;8.37;5.57;;;;;;;;;;5081456;28;20190;-81
2024/01/20 12:17:48;;;;;;;12.30;8.00;;;;;;;;;;5091107;28;20208;-80
2024/01/20 12:20:17;;;;;;;9.83;5.60;;;;;;;;;;5090523;28;20208;-81
2024/01/20 12:22:45;;;;;;;7.83;4.80;;;;;;;;;;5091263;28;20189;-81
2024/01/20 12:25:13;;;;;;;10.20;6.53;;;;;;;;;;5091381;28;20184;-81
2024/01/20 12:27:43;;;;;;;4.67;3.87;;;;;;;;;;5091325;28;20482;-81
2024/01/20 12:30:12;;;;;;;11.10;6.53;;;;;;;;;;5091662;28;20196;-81
2024/01/20 12:32:42;;;;;;;11.43;6.70;;;;;;;;;;5089258;28;20200;-80
2024/01/20 12:35:11;;;;;;;10.50;6.07;;;;;;;;;;5090665;28;20292;-81
2024/01/20 12:37:39;;;;;;;4.97;4.33;;;;;;;;;;5091780;28;20371;-80
2024/01/20 12:40:08;;;;;;;11.00;8.10;;;;;;;;;;5091013;28;20250;-80
2024/01/20 12:42:37;;;;;;;6.20;4.97;;;;;;;;;;5089975;28;20192;-81
2024/01/20 12:45:11;;;;;;;6.97;5.50;;;;;;;;;;5089804;28;20195;-80
2024/01/20 12:47:40;;;;;;;6.07;4.93;;;;;;;;;;5091241;28;20203;-80
2024/01/20 12:50:10;;;;;;;9.83;6.23;;;;;;;;;;5090299;28;20354;-80
2024/01/20 12:52:39;;;;;;;6.40;4.90;;;;;;;;;;5085717;28;20190;-80
2024/01/20 12:55:11;;;;;;;3.67;3.30;;;;;;;;;;5076210;28;20206;-81
2024/01/20 12:57:40;;;;;;;5.13;4.33;;;;;;;;;;5089336;28;20216;-81
2024/01/20 13:00:10;;;;;;;6.57;5.23;;;;;;;;;;5085048;28;20199;-81
2024/01/20 13:02:39;;;;;;;15.07;9.33;;;;;;;;;;5078933;28;20377;-82
2024/01/20 13:05:09;;;;;;;6.37;4.90;;;;;;;;;;5080003;28;20193;-80
2024/01/20 13:07:38;;;;;;;6.10;4.37;;;;;;;;;;5077106;28;20197;-80
2024/01/20 13:10:07;;;;;;;5.17;4.23;;;;;;;;;;5088405;28;20197;-80
2024/01/20 13:12:35;;;;;;;8.37;5.57;;;;;;;;;;5091951;28;20197;-80
2024/01/20 13:15:04;;;;;;;6.03;4.23;;;;;;;;;;5091616;28;20206;-80
2024/01/20 13:17:33;;;;;;;6.27;4.47;;;;;;;;;;5094451;28;20203;-80
2024/01/20 13:20:01;;;;;;;3.80;3.43;;;;;;;;;;5094670;28;20216;-80
2024/01/20 13:22:31;;;;;;;3.67;2.83;;;;;;;;;;5094644;28;20205;-80
2024/01/20 13:25:00;;;;;;;4.77;3.67;;;;;;;;;;5093008;28;20197;-80
2024/01/20 13:27:28;;;;;;;4.30;2.90;;;;;;;;;;5109739;28;20224;-80
2024/01/20 13:29:57;;;;;;;4.77;2.90;;;;;;;;;;5093036;28;20262;-80
2024/01/20 13:32:26;;;;;;;6.43;4.30;;;;;;;;;;5093212;28;20288;-81
2024/01/20 13:34:54;;;;;;;5.97;3.87;;;;;;;;;;5092902;28;20228;-81
2024/01/20 13:37:23;;;;;;;3.37;2.53;;;;;;;;;;5092437;28;20199;-80
2024/01/20 13:39:54;;;;;;;5.13;2.73;;;;;;;;;;5089617;28;20201;-80
2024/01/20 13:42:22;;;;;;;4.00;3.60;;;;;;;;;;5081026;28;20288;-80
2024/01/20 13:44:51;;;;;;;7.30;4.30;;;;;;;;;;5090365;28;20197;-80
2024/01/20 13:47:19;;;;;;;7.73;4.87;;;;;;;;;;5105633;28;20194;-81
2024/01/20 13:49:48;;;;;;;4.50;2.07;;;;;;;;;;5091916;28;20300;-81
2024/01/20 13:52:17;;;;;;;7.30;3.77;;;;;;;;;;5094344;28;20193;-81
2024/01/20 13:54:45;;;;;;;5.00;3.87;;;;;;;;;;5092120;28;20238;-81
2024/01/20 13:57:15;;;;;;;3.60;2.77;;;;;;;;;;5091788;28;20204;-81
2024/01/20 13:59:44;;;;;;;5.23;2.97;;;;;;;;;;5093372;28;20336;-80
2024/01/20 14:02:12;;;;;;;9.13;6.20;;;;;;;;;;5088580;28;20209;-81
2024/01/20 14:04:41;;;;;;;4.27;3.00;;;;;;;;;;5092397;28;20199;-80
2024/01/20 14:07:10;;;;;;;5.17;4.33;;;;;;;;;;5085897;28;20193;-80
2024/01/20 14:09:38;;;;;;;4.00;3.13;;;;;;;;;;5092897;28;20250;-80
2024/01/20 14:12:07;;;;;;;6.67;4.70;;;;;;;;;;5092670;28;20193;-80
2024/01/20 14:14:38;;;;;;;6.70;4.73;;;;;;;;;;5093282;28;20299;-81
2024/01/20 14:17:06;;;;;;;4.33;3.30;;;;;;;;;;5093562;28;20193;-81
2024/01/20 14:19:37;;;;;;;6.67;4.60;;;;;;;;;;5091280;28;20193;-81
2024/01/20 14:22:06;;;;;;;6.00;4.70;;;;;;;;;;5094198;28;20193;-81
2024/01/20 14:24:35;;;;;;;8.00;6.03;;;;;;;;;;5092264;28;20246;-81
2024/01/20 14:27:03;;;;;;;6.20;5.07;;;;;;;;;;5093404;28;20232;-81
2024/01/20 14:29:32;;;;;;;11.43;7.93;;;;;;;;;;5092834;28;20240;-81
2024/01/20 14:32:02;;;;;;;9.57;6.50;;;;;;;;;;5093804;28;20193;-80
2024/01/20 14:34:31;;;;;;;6.33;5.57;;;;;;;;;;5092538;28;20307;-80
2024/01/20 14:37:00;;;;;;;10.30;8.87;;;;;;;;;;5092837;28;20197;-80
2024/01/20 14:39:32;;;;;;;12.20;8.17;;;;;;;;;;5093367;28;20207;-81
2024/01/20 14:42:01;;;;;;;10.23;7.77;;;;;;;;;;5092505;28;20238;-80
2024/01/20 14:44:33;;;;;;;7.53;5.27;;;;;;;;;;5093148;28;20197;-80